East Middlebury, Vermont
Current Conditions -  °F | °C
As of 6:55 AM on Monday 22 Dec 2014 (Local Time) from K6B0 Reporting Station
Overcast Overcast  
Wind Chill: 25°   Ceiling: 3800
Heat Index: 25°   Visibility: 7mi
Dew Point: 25°   Wind: 0mph
Humidity: 100%   Direction: NA
Pressure: 30.35"   Gusts: NA
Location:  43.97°N, 73.11°W
Report Text: K6B0 221155Z AUTO 00000KT 7SM OVC038 M04/M04 A3035 RMK AO2 T10381038 11037 21040
Loading
Personal Weather Stations






























Interactive Weather Map New forecast layout! Learn more

10-Day Weather Forecast

Advertisements
Track Severe Weather on mobile